Time;durP1;ratioP1;P1;durP2;ratioP2;P2;SDS_P1;SDS_P2;PMS_P1;PMS_P2;Temp;Humidity;BMP_temperature;BMP_pressure;BME280_temperature;BME280_humidity;BME280_pressure;Samples;Min_cycle;Max_cycle;Signal;HPM_P1;HPM_P2
2021/01/05 00:02:05;;;;;;;4.26;3.53;;;;;;;18.62;45.60;99946.55;;;;-55
2021/01/05 00:05:05;;;;;;;4.11;3.71;;;;;;;18.60;45.71;99949.08;;;;-55
2021/01/05 00:08:05;;;;;;;3.79;3.40;;;;;;;18.57;45.72;99947.10;;;;-55
2021/01/05 00:11:05;;;;;;;5.19;3.73;;;;;;;18.55;45.69;99945.23;;;;-51
2021/01/05 00:14:05;;;;;;;4.20;3.43;;;;;;;18.52;45.69;99946.45;;;;-55
2021/01/05 00:17:05;;;;;;;4.25;3.69;;;;;;;18.52;45.75;99950.11;;;;-54
2021/01/05 00:20:05;;;;;;;4.05;3.58;;;;;;;18.49;45.77;99946.92;;;;-54
2021/01/05 00:23:05;;;;;;;4.01;3.61;;;;;;;18.46;45.82;99949.11;;;;-54
2021/01/05 00:26:05;;;;;;;3.95;3.55;;;;;;;18.44;45.80;99944.72;;;;-55
2021/01/05 00:29:05;;;;;;;3.79;3.40;;;;;;;18.43;45.84;99948.53;;;;-53
2021/01/05 00:32:05;;;;;;;4.16;3.75;;;;;;;18.40;45.82;99940.98;;;;-53
2021/01/05 00:35:05;;;;;;;4.15;3.75;;;;;;;18.38;45.94;99939.84;;;;-55
2021/01/05 00:38:05;;;;;;;3.85;3.44;;;;;;;18.37;45.83;99938.48;;;;-55
2021/01/05 00:41:05;;;;;;;5.12;3.66;;;;;;;18.35;45.90;99935.80;;;;-55
2021/01/05 00:44:05;;;;;;;4.03;3.61;;;;;;;18.32;45.90;99936.69;;;;-54
2021/01/05 00:47:05;;;;;;;4.04;3.43;;;;;;;18.31;45.98;99935.70;;;;-54
2021/01/05 00:50:05;;;;;;;3.99;3.49;;;;;;;18.28;45.88;99933.25;;;;-53
2021/01/05 00:53:05;;;;;;;3.89;3.53;;;;;;;18.27;45.96;99936.02;;;;-53
2021/01/05 00:56:05;;;;;;;4.15;3.51;;;;;;;18.25;46.07;99935.19;;;;-55
2021/01/05 00:59:05;;;;;;;4.57;3.55;;;;;;;18.23;46.01;99937.20;;;;-53
2021/01/05 01:02:05;;;;;;;3.79;3.44;;;;;;;18.22;45.96;99938.52;;;;-53
2021/01/05 01:05:05;;;;;;;3.85;3.47;;;;;;;18.21;45.97;99937.62;;;;-51
2021/01/05 01:08:05;;;;;;;3.84;3.45;;;;;;;18.17;46.07;99931.35;;;;-52
2021/01/05 01:11:05;;;;;;;4.02;3.62;;;;;;;18.16;46.06;99933.63;;;;-55
2021/01/05 01:14:05;;;;;;;3.75;3.30;;;;;;;18.15;46.09;99933.53;;;;-54
2021/01/05 01:17:05;;;;;;;3.93;3.54;;;;;;;18.14;46.06;99937.28;;;;-51
2021/01/05 01:20:05;;;;;;;3.57;3.27;;;;;;;18.12;46.07;99936.45;;;;-55
2021/01/05 01:23:05;;;;;;;3.70;3.40;;;;;;;18.10;46.03;99938.40;;;;-54
2021/01/05 01:26:05;;;;;;;3.38;3.08;;;;;;;18.08;46.09;99935.71;;;;-55
2021/01/05 01:29:05;;;;;;;3.98;3.58;;;;;;;18.06;46.11;99940.40;;;;-55
2021/01/05 01:32:05;;;;;;;3.67;3.37;;;;;;;18.06;46.15;99944.62;;;;-51
2021/01/05 01:35:05;;;;;;;3.81;3.49;;;;;;;18.04;46.17;99936.99;;;;-51
2021/01/05 01:38:05;;;;;;;3.70;3.39;;;;;;;18.03;46.16;99940.95;;;;-53
2021/01/05 01:41:05;;;;;;;3.69;3.29;;;;;;;18.00;46.28;99936.08;;;;-53
2021/01/05 01:44:05;;;;;;;3.72;3.42;;;;;;;17.98;46.28;99934.70;;;;-51
2021/01/05 01:47:05;;;;;;;3.65;3.35;;;;;;;17.96;46.25;99935.09;;;;-55
2021/01/05 01:50:05;;;;;;;3.79;3.46;;;;;;;17.95;46.26;99935.42;;;;-51
2021/01/05 01:53:05;;;;;;;3.81;3.51;;;;;;;17.93;46.19;99931.53;;;;-51
2021/01/05 01:57:05;;;;;;;3.59;3.29;;;;;;;17.91;46.22;99928.49;;;;-53
2021/01/05 02:00:05;;;;;;;4.42;3.37;;;;;;;17.89;46.28;99926.80;;;;-54
2021/01/05 02:03:05;;;;;;;3.62;3.30;;;;;;;17.87;46.30;99924.13;;;;-55
2021/01/05 02:06:05;;;;;;;3.66;3.36;;;;;;;17.85;46.29;99928.00;;;;-54
2021/01/05 02:09:05;;;;;;;3.87;3.47;;;;;;;17.85;46.26;99924.67;;;;-54
2021/01/05 02:12:05;;;;;;;3.76;3.41;;;;;;;17.85;46.25;99924.20;;;;-52
2021/01/05 02:15:05;;;;;;;3.55;3.25;;;;;;;17.82;46.32;99921.95;;;;-55
2021/01/05 02:18:05;;;;;;;3.87;3.47;;;;;;;17.80;46.30;99924.28;;;;-55
2021/01/05 02:21:05;;;;;;;3.66;3.32;;;;;;;17.80;46.32;99924.04;;;;-52
2021/01/05 02:24:05;;;;;;;3.67;3.26;;;;;;;17.78;46.35;99932.30;;;;-54
2021/01/05 02:27:05;;;;;;;4.07;3.57;;;;;;;17.77;46.36;99932.38;;;;-54
2021/01/05 02:30:05;;;;;;;3.81;3.39;;;;;;;17.76;46.38;99930.98;;;;-54
2021/01/05 02:33:05;;;;;;;4.00;3.56;;;;;;;17.75;46.37;99931.23;;;;-54
2021/01/05 02:36:06;;;;;;;3.60;3.30;;;;;;;17.74;46.34;99935.14;;;;-55
2021/01/05 02:40:05;;;;;;;3.44;3.14;;;;;;;17.73;46.42;99941.36;;;;-55
2021/01/05 02:43:05;;;;;;;3.60;3.30;;;;;;;17.73;46.33;99939.58;;;;-54
2021/01/05 02:47:05;;;;;;;3.47;3.17;;;;;;;17.70;46.42;99939.41;;;;-55
2021/01/05 02:50:05;;;;;;;3.67;3.34;;;;;;;17.70;46.37;99940.52;;;;-53
2021/01/05 02:53:05;;;;;;;3.47;3.17;;;;;;;17.69;46.41;99938.66;;;;-54
2021/01/05 02:56:05;;;;;;;3.55;3.20;;;;;;;17.68;46.44;99938.19;;;;-52
2021/01/05 02:59:05;;;;;;;3.72;3.18;;;;;;;17.66;46.43;99933.61;;;;-54
2021/01/05 03:04:05;;;;;;;3.67;3.37;;;;;;;17.64;46.44;99930.14;;;;-55
2021/01/05 03:07:05;;;;;;;3.45;3.15;;;;;;;17.63;46.45;99926.39;;;;-55
2021/01/05 03:10:05;;;;;;;3.68;3.27;;;;;;;17.62;46.43;99928.08;;;;-54
2021/01/05 03:13:05;;;;;;;3.48;3.18;;;;;;;17.61;46.42;99927.03;;;;-55
2021/01/05 03:18:05;;;;;;;3.50;3.20;;;;;;;17.60;46.46;99933.59;;;;-52
2021/01/05 03:21:05;;;;;;;3.43;3.13;;;;;;;17.58;46.49;99930.50;;;;-54
2021/01/05 03:24:05;;;;;;;3.83;3.22;;;;;;;17.56;46.41;99927.25;;;;-52
2021/01/05 03:27:05;;;;;;;3.60;3.30;;;;;;;17.56;46.44;99927.98;;;;-54
2021/01/05 03:30:05;;;;;;;3.64;3.34;;;;;;;17.55;46.46;99930.64;;;;-52
2021/01/05 03:33:05;;;;;;;3.53;3.23;;;;;;;17.55;46.52;99930.16;;;;-54
2021/01/05 03:36:05;;;;;;;3.76;3.41;;;;;;;17.53;46.45;99926.73;;;;-52
2021/01/05 03:39:05;;;;;;;3.25;2.95;;;;;;;17.52;46.53;99926.83;;;;-52
2021/01/05 03:42:05;;;;;;;3.43;3.12;;;;;;;17.51;46.42;99925.99;;;;-53
2021/01/05 03:45:05;;;;;;;3.50;3.20;;;;;;;17.50;46.51;99930.45;;;;-54
2021/01/05 03:48:05;;;;;;;3.75;3.43;;;;;;;17.49;46.50;99932.73;;;;-51
2021/01/05 03:51:05;;;;;;;3.67;3.37;;;;;;;17.48;46.57;99935.70;;;;-54
2021/01/05 03:54:05;;;;;;;3.43;3.13;;;;;;;17.48;46.53;99934.91;;;;-52
2021/01/05 03:57:05;;;;;;;3.65;3.35;;;;;;;17.47;46.53;99931.80;;;;-55
2021/01/05 04:00:05;;;;;;;3.63;3.32;;;;;;;17.46;46.61;99931.97;;;;-53
2021/01/05 04:03:05;;;;;;;3.71;3.41;;;;;;;17.45;46.55;99935.03;;;;-53
2021/01/05 04:06:05;;;;;;;3.53;3.23;;;;;;;17.44;46.44;99935.04;;;;-53
2021/01/05 04:09:05;;;;;;;3.63;3.33;;;;;;;17.43;46.52;99934.20;;;;-55
2021/01/05 04:12:05;;;;;;;3.36;3.06;;;;;;;17.42;46.53;99929.83;;;;-54
2021/01/05 04:15:05;;;;;;;3.54;3.24;;;;;;;17.40;46.55;99924.24;;;;-55
2021/01/05 04:18:05;;;;;;;3.35;3.05;;;;;;;17.40;46.56;99918.90;;;;-51
2021/01/05 04:21:05;;;;;;;3.55;3.24;;;;;;;17.38;46.54;99919.93;;;;-54
2021/01/05 04:24:05;;;;;;;3.61;3.29;;;;;;;17.37;46.57;99918.45;;;;-55
2021/01/05 04:27:05;;;;;;;3.55;3.25;;;;;;;17.36;46.53;99922.19;;;;-54
2021/01/05 04:30:05;;;;;;;3.55;3.25;;;;;;;17.36;46.50;99928.42;;;;-54
2021/01/05 04:33:05;;;;;;;3.84;3.21;;;;;;;17.35;46.49;99926.80;;;;-54
2021/01/05 04:36:05;;;;;;;4.35;3.23;;;;;;;17.33;46.55;99929.55;;;;-54
2021/01/05 04:39:05;;;;;;;3.74;3.29;;;;;;;17.33;46.63;99930.60;;;;-55
2021/01/05 04:42:05;;;;;;;3.57;3.27;;;;;;;17.32;46.57;99933.17;;;;-54
2021/01/05 04:45:05;;;;;;;4.45;3.17;;;;;;;17.31;46.60;99935.20;;;;-54
2021/01/05 04:48:05;;;;;;;3.39;3.09;;;;;;;17.30;46.56;99937.93;;;;-53
2021/01/05 04:51:05;;;;;;;3.59;3.29;;;;;;;17.29;46.61;99940.20;;;;-51
2021/01/05 04:54:05;;;;;;;3.40;3.10;;;;;;;17.29;46.64;99940.53;;;;-54
2021/01/05 04:57:05;;;;;;;3.69;3.37;;;;;;;17.28;46.60;99944.23;;;;-54
2021/01/05 05:00:05;;;;;;;3.39;3.09;;;;;;;17.27;46.58;99944.48;;;;-52
2021/01/05 05:03:05;;;;;;;3.31;3.01;;;;;;;17.26;46.60;99944.30;;;;-53
2021/01/05 05:06:05;;;;;;;3.47;3.17;;;;;;;17.25;46.56;99946.58;;;;-54
2021/01/05 05:09:05;;;;;;;3.43;3.13;;;;;;;17.25;46.59;99950.06;;;;-54
2021/01/05 05:12:05;;;;;;;3.68;3.34;;;;;;;17.25;46.59;99955.81;;;;-51
2021/01/05 05:15:05;;;;;;;3.37;3.07;;;;;;;17.23;46.60;99951.91;;;;-51
2021/01/05 05:18:05;;;;;;;3.54;3.24;;;;;;;17.23;46.60;99952.55;;;;-52
2021/01/05 05:21:05;;;;;;;3.49;3.19;;;;;;;17.22;46.61;99949.16;;;;-53
2021/01/05 05:24:05;;;;;;;3.59;3.29;;;;;;;17.22;46.59;99949.45;;;;-53
2021/01/05 05:27:05;;;;;;;3.69;3.39;;;;;;;17.21;46.61;99956.34;;;;-53
2021/01/05 05:30:05;;;;;;;3.33;3.03;;;;;;;17.19;46.58;99960.61;;;;-53
2021/01/05 05:33:05;;;;;;;3.43;3.13;;;;;;;17.19;46.62;99958.43;;;;-55
2021/01/05 05:36:05;;;;;;;3.29;2.99;;;;;;;17.18;46.65;99962.05;;;;-55
2021/01/05 05:39:05;;;;;;;3.59;3.29;;;;;;;17.17;46.64;99963.19;;;;-51
2021/01/05 05:42:05;;;;;;;3.47;3.17;;;;;;;17.17;46.64;99967.56;;;;-54
2021/01/05 05:46:05;;;;;;;3.68;3.38;;;;;;;17.16;46.68;99971.19;;;;-53
2021/01/05 05:49:05;;;;;;;3.48;3.18;;;;;;;17.15;46.59;99981.23;;;;-51
2021/01/05 05:52:05;;;;;;;3.49;3.19;;;;;;;17.14;46.62;99975.48;;;;-55
2021/01/05 05:55:05;;;;;;;3.50;3.20;;;;;;;17.13;46.68;99973.20;;;;-53
2021/01/05 05:58:05;;;;;;;3.40;3.10;;;;;;;17.13;46.66;99976.28;;;;-54
2021/01/05 06:01:05;;;;;;;3.49;3.19;;;;;;;17.12;46.68;99983.94;;;;-54
2021/01/05 06:04:07;;;;;;;3.30;3.00;;;;;;;17.11;46.65;99984.44;;;;-54
2021/01/05 06:07:05;;;;;;;3.31;3.01;;;;;;;17.10;46.62;99979.83;;;;-55
2021/01/05 06:10:05;;;;;;;3.38;3.08;;;;;;;17.10;46.68;99984.84;;;;-53
2021/01/05 06:13:05;;;;;;;3.59;3.29;;;;;;;17.10;46.69;99984.66;;;;-53
2021/01/05 06:16:05;;;;;;;3.45;3.15;;;;;;;17.09;46.72;99987.25;;;;-53
2021/01/05 06:19:05;;;;;;;9.29;4.23;;;;;;;17.01;45.36;99992.28;;;;-54
2021/01/05 06:22:05;;;;;;;8.56;5.88;;;;;;;16.81;44.05;99990.33;;;;-54
2021/01/05 06:25:05;;;;;;;6.23;5.56;;;;;;;16.62;43.45;99991.32;;;;-54
2021/01/05 06:28:05;;;;;;;8.53;6.49;;;;;;;16.49;42.82;99994.48;;;;-53
2021/01/05 06:31:05;;;;;;;8.33;6.59;;;;;;;16.36;42.50;99992.16;;;;-48
2021/01/05 06:34:05;;;;;;;7.14;6.43;;;;;;;16.26;42.51;99994.22;;;;-53
2021/01/05 06:37:05;;;;;;;8.08;6.65;;;;;;;16.17;42.39;99992.42;;;;-51
2021/01/05 06:40:05;;;;;;;7.55;6.63;;;;;;;16.07;42.39;99994.47;;;;-50
2021/01/05 06:43:06;;;;;;;7.71;6.64;;;;;;;16.02;42.44;99995.68;;;;-51
2021/01/05 06:46:05;;;;;;;8.87;6.09;;;;;;;16.20;43.27;100001.09;;;;-51
2021/01/05 06:49:05;;;;;;;6.88;5.69;;;;;;;16.30;43.76;100002.34;;;;-55
2021/01/05 06:52:05;;;;;;;6.77;5.68;;;;;;;16.43;43.87;100004.44;;;;-55
2021/01/05 06:55:05;;;;;;;6.77;5.27;;;;;;;16.50;44.32;100009.71;;;;-55
2021/01/05 06:58:05;;;;;;;6.17;5.10;;;;;;;16.58;44.21;100010.34;;;;-51
2021/01/05 07:01:05;;;;;;;6.51;5.18;;;;;;;16.64;44.33;100009.14;;;;-55
2021/01/05 07:04:05;;;;;;;5.91;4.82;;;;;;;16.72;44.49;100011.62;;;;-55
2021/01/05 07:07:05;;;;;;;6.01;5.14;;;;;;;16.80;44.61;100011.80;;;;-51
2021/01/05 07:10:05;;;;;;;6.26;4.97;;;;;;;16.86;44.79;100008.81;;;;-52
2021/01/05 07:13:05;;;;;;;5.05;4.40;;;;;;;16.92;44.86;100010.73;;;;-51
2021/01/05 07:16:05;;;;;;;5.39;4.57;;;;;;;16.97;44.96;100015.30;;;;-55
2021/01/05 07:19:05;;;;;;;5.39;4.56;;;;;;;17.02;45.07;100018.77;;;;-55
2021/01/05 07:22:05;;;;;;;5.45;4.41;;;;;;;17.06;45.09;100024.63;;;;-51
2021/01/05 07:25:05;;;;;;;4.94;4.45;;;;;;;17.10;45.19;100023.78;;;;-51
2021/01/05 07:28:05;;;;;;;4.66;4.19;;;;;;;17.14;45.25;100026.41;;;;-52
2021/01/05 07:31:05;;;;;;;5.27;4.23;;;;;;;17.20;45.33;100023.69;;;;-50
2021/01/05 07:34:05;;;;;;;5.29;4.19;;;;;;;17.23;45.38;100024.29;;;;-52
2021/01/05 07:37:05;;;;;;;4.66;4.16;;;;;;;17.27;45.39;100027.08;;;;-56
2021/01/05 07:40:05;;;;;;;8.07;4.27;;;;;;;17.31;45.57;100028.90;;;;-57
2021/01/05 07:43:05;;;;;;;5.57;4.22;;;;;;;17.37;45.56;100027.63;;;;-53
2021/01/05 07:46:05;;;;;;;6.78;4.78;;;;;;;17.40;45.54;100033.02;;;;-52
2021/01/05 07:49:05;;;;;;;6.90;4.41;;;;;;;17.44;45.46;100036.20;;;;-53
2021/01/05 07:52:05;;;;;;;4.88;4.31;;;;;;;17.46;45.62;100041.41;;;;-54
2021/01/05 07:55:05;;;;;;;6.79;4.21;;;;;;;17.48;45.64;100042.07;;;;-54
2021/01/05 07:58:05;;;;;;;5.33;4.09;;;;;;;17.50;45.68;100043.80;;;;-52
2021/01/05 08:01:05;;;;;;;4.65;3.97;;;;;;;17.51;45.70;100040.63;;;;-51
2021/01/05 08:04:05;;;;;;;4.83;4.13;;;;;;;17.53;45.73;100040.31;;;;-53
2021/01/05 08:07:06;;;;;;;4.27;3.70;;;;;;;17.55;45.71;100041.71;;;;-54
2021/01/05 08:10:05;;;;;;;4.91;3.89;;;;;;;17.55;45.71;100041.46;;;;-54
2021/01/05 08:13:05;;;;;;;5.75;3.94;;;;;;;17.55;45.69;100041.14;;;;-54
2021/01/05 08:16:05;;;;;;;4.43;4.01;;;;;;;17.57;45.68;100040.43;;;;-51
2021/01/05 08:19:05;;;;;;;4.33;3.85;;;;;;;17.57;45.73;100038.72;;;;-54
2021/01/05 08:22:05;;;;;;;8.67;3.95;;;;;;;17.61;46.26;100041.43;;;;-56
2021/01/05 08:25:05;;;;;;;6.41;3.95;;;;;;;17.62;46.57;100042.02;;;;-56
2021/01/05 08:28:05;;;;;;;5.73;3.90;;;;;;;17.65;46.62;100045.11;;;;-50
2021/01/05 08:31:05;;;;;;;5.61;3.95;;;;;;;17.64;46.75;100047.14;;;;-57
2021/01/05 08:34:05;;;;;;;4.63;3.62;;;;;;;17.66;46.90;100043.84;;;;-55
2021/01/05 08:37:05;;;;;;;5.60;3.73;;;;;;;17.67;46.83;100046.10;;;;-61
2021/01/05 08:40:05;;;;;;;5.77;3.78;;;;;;;17.70;46.77;100044.81;;;;-56
2021/01/05 08:43:05;;;;;;;4.87;3.74;;;;;;;17.70;46.50;100044.92;;;;-55
2021/01/05 08:46:05;;;;;;;3.97;3.36;;;;;;;17.70;46.36;100043.19;;;;-55
2021/01/05 08:49:05;;;;;;;5.35;3.69;;;;;;;17.70;46.58;100041.89;;;;-54
2021/01/05 08:52:05;;;;;;;4.61;3.73;;;;;;;17.72;46.61;100039.72;;;;-47
2021/01/05 08:55:05;;;;;;;4.38;3.75;;;;;;;17.77;46.83;100034.17;;;;-54
2021/01/05 08:58:05;;;;;;;4.63;3.53;;;;;;;17.80;46.51;100039.53;;;;-55
2021/01/05 09:01:05;;;;;;;7.75;3.50;;;;;;;17.82;46.34;100038.17;;;;-53
2021/01/05 09:04:05;;;;;;;3.97;3.55;;;;;;;17.82;46.23;100036.47;;;;-53
2021/01/05 09:07:05;;;;;;;4.30;3.74;;;;;;;17.85;46.20;100030.28;;;;-57
2021/01/05 09:10:05;;;;;;;6.03;3.56;;;;;;;17.87;46.22;100030.55;;;;-53
2021/01/05 09:13:05;;;;;;;5.47;3.93;;;;;;;17.87;46.04;100030.63;;;;-52
2021/01/05 09:16:05;;;;;;;4.98;4.05;;;;;;;17.90;45.90;100032.09;;;;-59
2021/01/05 09:19:05;;;;;;;5.09;4.23;;;;;;;17.93;45.58;100031.29;;;;-59
2021/01/05 09:22:05;;;;;;;6.45;4.07;;;;;;;17.96;46.02;100033.42;;;;-54
2021/01/05 09:25:05;;;;;;;5.01;4.19;;;;;;;17.95;45.87;100035.03;;;;-50
2021/01/05 09:28:05;;;;;;;9.09;4.43;;;;;;;17.99;46.36;100033.52;;;;-51
2021/01/05 09:31:05;;;;;;;6.14;3.93;;;;;;;18.05;46.39;100032.09;;;;-51
2021/01/05 09:34:05;;;;;;;7.87;4.09;;;;;;;18.11;46.44;100032.28;;;;-53
2021/01/05 09:37:05;;;;;;;9.67;3.95;;;;;;;18.17;46.52;100032.97;;;;-51
2021/01/05 09:40:05;;;;;;;6.09;4.07;;;;;;;18.21;46.43;100033.96;;;;-53
2021/01/05 09:43:05;;;;;;;4.85;3.99;;;;;;;18.23;46.32;100036.48;;;;-57
2021/01/05 09:46:05;;;;;;;4.83;3.79;;;;;;;18.23;46.06;100033.40;;;;-57
2021/01/05 09:49:05;;;;;;;8.71;3.95;;;;;;;18.26;46.05;100034.41;;;;-57
2021/01/05 09:52:05;;;;;;;5.26;4.07;;;;;;;18.27;46.04;100029.12;;;;-57
2021/01/05 09:55:05;;;;;;;4.29;3.64;;;;;;;18.30;45.95;100031.96;;;;-57
2021/01/05 09:58:05;;;;;;;5.78;3.81;;;;;;;18.31;45.96;100032.06;;;;-57
2021/01/05 10:01:05;;;;;;;5.79;3.97;;;;;;;18.33;46.00;100025.99;;;;-55
2021/01/05 10:04:05;;;;;;;6.15;3.91;;;;;;;18.38;46.38;100032.32;;;;-53
2021/01/05 10:07:05;;;;;;;4.79;3.37;;;;;;;18.42;46.51;100033.64;;;;-50
2021/01/05 10:10:05;;;;;;;7.03;3.86;;;;;;;18.46;46.60;100030.01;;;;-54
2021/01/05 10:13:05;;;;;;;4.59;3.76;;;;;;;18.49;46.71;100030.00;;;;-54
2021/01/05 10:16:05;;;;;;;4.59;3.61;;;;;;;18.53;46.75;100029.21;;;;-61
2021/01/05 10:19:05;;;;;;;5.31;3.43;;;;;;;18.57;46.80;100028.11;;;;-51
2021/01/05 10:22:05;;;;;;;4.45;3.68;;;;;;;18.62;46.73;100023.91;;;;-55
2021/01/05 10:25:05;;;;;;;4.41;3.40;;;;;;;18.66;46.91;100022.45;;;;-52
2021/01/05 10:28:05;;;;;;;5.17;3.57;;;;;;;18.69;46.57;100016.44;;;;-57
2021/01/05 10:31:05;;;;;;;17.39;4.00;;;;;;;18.74;46.70;100020.91;;;;-55
2021/01/05 10:34:05;;;;;;;8.52;3.60;;;;;;;18.78;47.14;100017.99;;;;-61
2021/01/05 10:37:05;;;;;;;5.53;3.84;;;;;;;18.81;46.77;100019.98;;;;-63
2021/01/05 10:40:05;;;;;;;6.23;3.57;;;;;;;18.83;47.11;100018.05;;;;-57
2021/01/05 10:43:05;;;;;;;5.03;3.39;;;;;;;18.84;47.01;100013.89;;;;-53
2021/01/05 10:46:05;;;;;;;8.19;3.58;;;;;;;18.91;47.33;100019.28;;;;-45
2021/01/05 10:49:05;;;;;;;8.80;3.71;;;;;;;18.94;47.23;100021.70;;;;-43
2021/01/05 10:52:05;;;;;;;8.39;4.11;;;;;;;18.97;46.99;100024.73;;;;-52
2021/01/05 10:55:05;;;;;;;6.87;3.86;;;;;;;19.00;47.00;100024.16;;;;-52
2021/01/05 10:58:05;;;;;;;8.13;4.06;;;;;;;19.02;46.50;100026.77;;;;-54
2021/01/05 11:01:04;;;;;;;6.30;3.87;;;;;;;19.01;46.05;100020.44;;;;-54
2021/01/05 11:04:04;;;;;;;7.29;4.09;;;;;;;18.99;45.57;100015.48;;;;-51
2021/01/05 11:07:04;;;;;;;5.25;3.81;;;;;;;18.99;45.67;100012.23;;;;-50
2021/01/05 11:10:04;;;;;;;5.73;3.50;;;;;;;19.01;45.96;100013.55;;;;-51
2021/01/05 11:13:05;;;;;;;5.81;3.78;;;;;;;19.02;45.77;100012.63;;;;-55
2021/01/05 11:16:04;;;;;;;5.42;3.44;;;;;;;19.04;45.88;100010.69;;;;-53
2021/01/05 11:19:04;;;;;;;4.63;3.67;;;;;;;19.04;45.49;100006.05;;;;-57
2021/01/05 11:22:05;;;;;;;5.72;3.89;;;;;;;19.07;45.97;100003.13;;;;-51
2021/01/05 11:25:04;;;;;;;6.18;3.67;;;;;;;19.08;45.93;99999.23;;;;-51
2021/01/05 11:28:04;;;;;;;4.58;3.47;;;;;;;19.10;45.99;99998.84;;;;-51
2021/01/05 11:31:04;;;;;;;5.69;3.77;;;;;;;19.12;46.05;99996.08;;;;-47
2021/01/05 11:34:04;;;;;;;4.47;3.58;;;;;;;19.12;46.12;99999.32;;;;-49
2021/01/05 11:37:04;;;;;;;5.98;3.48;;;;;;;19.15;46.28;100000.80;;;;-52
2021/01/05 11:40:04;;;;;;;6.82;3.32;;;;;;;19.17;46.08;99997.61;;;;-58
2021/01/05 11:43:04;;;;;;;4.27;3.33;;;;;;;19.16;45.97;99996.72;;;;-53
2021/01/05 11:46:04;;;;;;;4.99;3.54;;;;;;;19.16;45.94;99992.34;;;;-53
2021/01/05 11:49:04;;;;;;;4.72;3.35;;;;;;;19.16;45.87;99988.60;;;;-52
2021/01/05 11:52:04;;;;;;;4.47;3.37;;;;;;;19.16;45.78;99984.30;;;;-52
2021/01/05 11:55:04;;;;;;;5.97;3.49;;;;;;;19.17;45.84;99978.84;;;;-54
2021/01/05 11:58:05;;;;;;;4.59;3.39;;;;;;;19.17;45.76;99982.74;;;;-53
2021/01/05 12:01:04;;;;;;;4.60;3.19;;;;;;;19.17;45.83;99979.90;;;;-57
2021/01/05 12:04:04;;;;;;;3.89;3.49;;;;;;;19.17;45.78;99983.09;;;;-52
2021/01/05 12:07:04;;;;;;;4.41;3.37;;;;;;;19.17;45.74;99980.88;;;;-59
2021/01/05 12:10:04;;;;;;;4.85;3.32;;;;;;;19.18;45.71;99978.13;;;;-52
2021/01/05 12:13:04;;;;;;;3.85;3.24;;;;;;;19.18;45.68;99977.80;;;;-57
2021/01/05 12:16:04;;;;;;;3.90;3.17;;;;;;;19.20;45.67;99970.42;;;;-52
2021/01/05 12:19:04;;;;;;;4.11;3.39;;;;;;;19.19;45.65;99967.72;;;;-59
2021/01/05 12:22:04;;;;;;;3.51;3.20;;;;;;;19.20;45.68;99963.99;;;;-59
2021/01/05 12:25:04;;;;;;;4.69;3.22;;;;;;;19.20;45.66;99961.48;;;;-53
2021/01/05 12:28:04;;;;;;;3.73;3.28;;;;;;;19.20;45.67;99962.45;;;;-54
2021/01/05 12:31:04;;;;;;;3.15;2.85;;;;;;;19.20;45.64;99959.45;;;;-53
2021/01/05 12:34:04;;;;;;;3.69;3.29;;;;;;;19.21;45.66;99961.14;;;;-59
2021/01/05 12:37:04;;;;;;;4.01;3.21;;;;;;;19.23;45.64;99958.62;;;;-58
2021/01/05 12:40:04;;;;;;;3.88;3.20;;;;;;;19.23;45.59;99954.08;;;;-57
2021/01/05 12:43:04;;;;;;;3.91;3.39;;;;;;;19.27;45.61;99953.09;;;;-61
2021/01/05 12:46:04;;;;;;;3.67;3.14;;;;;;;19.28;46.12;99952.30;;;;-53
2021/01/05 12:49:04;;;;;;;4.16;3.31;;;;;;;19.30;46.18;99946.69;;;;-50
2021/01/05 12:52:05;;;;;;;6.22;3.11;;;;;;;19.34;46.26;99947.23;;;;-53
2021/01/05 12:55:04;;;;;;;4.01;3.23;;;;;;;19.40;46.91;99948.85;;;;-56
2021/01/05 12:58:04;;;;;;;4.47;3.18;;;;;;;19.44;47.21;99952.33;;;;-59
2021/01/05 13:01:04;;;;;;;4.94;3.23;;;;;;;19.47;47.29;99952.34;;;;-51
2021/01/05 13:04:04;;;;;;;3.80;3.00;;;;;;;19.53;47.07;99953.64;;;;-52
2021/01/05 13:07:04;;;;;;;4.97;3.29;;;;;;;19.54;47.17;99952.64;;;;-56
2021/01/05 13:10:04;;;;;;;3.46;3.16;;;;;;;19.58;47.49;99948.34;;;;-56
2021/01/05 13:13:05;;;;;;;4.94;3.13;;;;;;;19.64;47.67;99945.80;;;;-50
2021/01/05 13:16:04;;;;;;;5.76;3.77;;;;;;;19.60;46.92;99942.47;;;;-53
2021/01/05 13:19:04;;;;;;;12.73;4.15;;;;;;;19.63;47.30;99942.23;;;;-51
2021/01/05 13:22:04;;;;;;;6.87;3.49;;;;;;;19.67;46.64;99943.19;;;;-51
2021/01/05 13:25:04;;;;;;;4.71;3.45;;;;;;;19.70;46.83;99944.73;;;;-51
2021/01/05 13:28:04;;;;;;;7.51;3.79;;;;;;;19.67;46.70;99948.32;;;;-54
2021/01/05 13:31:04;;;;;;;3.89;3.49;;;;;;;19.67;46.66;99952.71;;;;-51
2021/01/05 13:34:04;;;;;;;10.42;3.34;;;;;;;19.68;46.46;99955.05;;;;-50
2021/01/05 13:37:05;;;;;;;5.63;3.58;;;;;;;19.67;46.64;99961.09;;;;-55
2021/01/05 13:40:05;;;;;;;5.85;3.41;;;;;;;19.68;46.50;99964.16;;;;-57
2021/01/05 13:43:05;;;;;;;5.93;3.41;;;;;;;19.68;46.28;99962.22;;;;-58
2021/01/05 13:46:04;;;;;;;5.01;3.43;;;;;;;19.70;46.65;99971.97;;;;-57
2021/01/05 13:49:05;;;;;;;6.09;3.31;;;;;;;19.71;46.49;99971.16;;;;-57
2021/01/05 13:52:07;;;;;;;3.76;3.19;;;;;;;19.71;46.63;99974.09;;;;-48
2021/01/05 13:55:04;;;;;;;5.77;3.45;;;;;;;19.73;46.60;99973.36;;;;-49
2021/01/05 13:58:05;;;;;;;4.20;3.37;;;;;;;19.75;46.49;99973.03;;;;-48
2021/01/05 14:01:05;;;;;;;4.68;3.23;;;;;;;19.76;46.60;99968.40;;;;-51
2021/01/05 14:04:05;;;;;;;5.60;3.29;;;;;;;19.79;46.58;99971.07;;;;-58
2021/01/05 14:07:05;;;;;;;5.30;3.23;;;;;;;19.79;46.49;99973.59;;;;-59
2021/01/05 14:10:05;;;;;;;3.55;3.15;;;;;;;19.80;46.62;99975.30;;;;-55
2021/01/05 14:13:05;;;;;;;3.95;3.27;;;;;;;19.80;46.38;99975.39;;;;-59
2021/01/05 14:16:05;;;;;;;5.44;3.47;;;;;;;19.80;46.46;99973.92;;;;-51
2021/01/05 14:19:04;;;;;;;4.03;3.33;;;;;;;19.82;46.36;99971.45;;;;-51
2021/01/05 14:22:05;;;;;;;5.81;3.58;;;;;;;19.83;46.62;99974.80;;;;-53
2021/01/05 14:25:05;;;;;;;4.24;3.25;;;;;;;19.83;46.55;99973.49;;;;-51
2021/01/05 14:28:05;;;;;;;4.11;3.14;;;;;;;19.85;46.57;99972.43;;;;-51
2021/01/05 14:31:06;;;;;;;4.22;3.23;;;;;;;19.86;46.51;99972.09;;;;-47
2021/01/05 14:34:04;;;;;;;5.37;3.19;;;;;;;19.85;46.45;99964.39;;;;-53
2021/01/05 14:37:04;;;;;;;7.17;3.13;;;;;;;19.86;46.50;99961.04;;;;-54
2021/01/05 14:40:05;;;;;;;3.36;3.00;;;;;;;19.86;46.53;99982.61;;;;-59
2021/01/05 14:43:05;;;;;;;3.79;3.16;;;;;;;19.87;46.58;99999.09;;;;-57
2021/01/05 14:46:05;;;;;;;4.25;3.33;;;;;;;19.87;46.56;99998.53;;;;-54
2021/01/05 14:49:05;;;;;;;3.36;3.05;;;;;;;19.90;46.47;100003.97;;;;-54
2021/01/05 14:52:05;;;;;;;3.23;2.93;;;;;;;19.91;46.48;100013.32;;;;-54
2021/01/05 14:55:05;;;;;;;3.52;2.93;;;;;;;19.91;46.39;100013.81;;;;-58
2021/01/05 14:58:04;;;;;;;4.62;3.30;;;;;;;19.90;46.38;100016.83;;;;-59
2021/01/05 15:01:05;;;;;;;4.59;3.10;;;;;;;19.91;46.53;100016.41;;;;-54
2021/01/05 15:04:05;;;;;;;4.05;3.20;;;;;;;19.93;46.33;100016.58;;;;-57
2021/01/05 15:07:04;;;;;;;5.81;3.16;;;;;;;19.92;46.18;100022.41;;;;-53
2021/01/05 15:10:04;;;;;;;3.49;3.16;;;;;;;19.94;46.39;100016.72;;;;-51
2021/01/05 15:13:05;;;;;;;4.14;3.20;;;;;;;19.94;46.39;100015.20;;;;-51
2021/01/05 15:16:04;;;;;;;3.83;3.23;;;;;;;19.98;46.38;100012.07;;;;-54
2021/01/05 15:19:05;;;;;;;4.27;3.05;;;;;;;19.99;46.37;100012.17;;;;-58
2021/01/05 15:22:05;;;;;;;4.90;3.20;;;;;;;20.01;46.33;100016.16;;;;-54
2021/01/05 15:25:05;;;;;;;4.51;3.28;;;;;;;20.02;46.40;100018.48;;;;-54
2021/01/05 15:28:05;;;;;;;3.60;3.13;;;;;;;20.03;46.26;100017.84;;;;-53
2021/01/05 15:31:04;;;;;;;3.55;3.15;;;;;;;20.06;46.36;100020.52;;;;-54
2021/01/05 15:34:05;;;;;;;5.14;3.20;;;;;;;20.06;46.39;100017.27;;;;-51
2021/01/05 15:37:05;;;;;;;4.21;3.23;;;;;;;20.07;46.31;100012.95;;;;-54
2021/01/05 15:40:04;;;;;;;3.66;3.01;;;;;;;20.08;46.28;100004.41;;;;-61
2021/01/05 15:43:05;;;;;;;3.98;2.96;;;;;;;20.08;46.20;100008.30;;;;-49
2021/01/05 15:46:04;;;;;;;4.36;3.11;;;;;;;20.08;46.03;100006.10;;;;-54
2021/01/05 15:49:05;;;;;;;3.93;3.11;;;;;;;20.06;45.89;100005.70;;;;-55
2021/01/05 15:52:05;;;;;;;3.49;3.10;;;;;;;20.05;45.83;100003.52;;;;-54
2021/01/05 15:55:04;;;;;;;3.57;3.27;;;;;;;20.03;45.77;100002.06;;;;-54
2021/01/05 15:58:05;;;;;;;4.44;3.05;;;;;;;20.02;45.75;100004.42;;;;-54
2021/01/05 16:01:04;;;;;;;3.93;3.28;;;;;;;20.01;45.86;100007.44;;;;-49
2021/01/05 16:04:05;;;;;;;6.41;3.32;;;;;;;20.05;46.00;100002.80;;;;-52
2021/01/05 16:07:05;;;;;;;7.87;3.44;;;;;;;20.06;46.38;100003.02;;;;-52
2021/01/05 16:10:04;;;;;;;5.97;3.86;;;;;;;20.03;45.59;99998.73;;;;-53
2021/01/05 16:13:05;;;;;;;4.65;3.45;;;;;;;20.05;45.76;100002.23;;;;-59
2021/01/05 16:16:05;;;;;;;3.85;3.34;;;;;;;20.04;45.84;100004.42;;;;-63
2021/01/05 16:19:04;;;;;;;5.04;3.17;;;;;;;20.06;45.78;100002.78;;;;-61
2021/01/05 16:22:05;;;;;;;5.59;3.51;;;;;;;20.06;45.96;100001.72;;;;-50
2021/01/05 16:25:04;;;;;;;6.22;3.27;;;;;;;20.07;45.89;100000.02;;;;-50
2021/01/05 16:28:04;;;;;;;5.11;3.35;;;;;;;20.09;46.00;99997.75;;;;-51
2021/01/05 16:31:05;;;;;;;4.31;3.25;;;;;;;20.10;46.02;99999.92;;;;-51
2021/01/05 16:34:04;;;;;;;5.01;3.39;;;;;;;20.14;45.95;99999.75;;;;-51
2021/01/05 16:37:06;;;;;;;4.79;3.29;;;;;;;20.13;45.93;100000.33;;;;-50
2021/01/05 16:40:05;;;;;;;4.59;3.17;;;;;;;20.15;45.95;99998.75;;;;-51
2021/01/05 16:43:04;;;;;;;3.90;3.21;;;;;;;20.16;45.90;100002.25;;;;-47
2021/01/05 16:46:05;;;;;;;4.33;3.11;;;;;;;20.18;45.93;100000.39;;;;-52
2021/01/05 16:49:04;;;;;;;5.19;3.15;;;;;;;20.16;45.97;99992.41;;;;-46
2021/01/05 16:52:05;;;;;;;5.50;3.35;;;;;;;20.20;46.15;99993.87;;;;-52
2021/01/05 16:55:05;;;;;;;7.70;3.67;;;;;;;20.20;45.98;99993.13;;;;-56
2021/01/05 16:58:04;;;;;;;5.65;3.53;;;;;;;20.19;45.82;99993.14;;;;-53